Time;durP1;ratioP1;P1;durP2;ratioP2;P2;SDS_P1;SDS_P2;PMS_P1;PMS_P2;Temp;Humidity;BMP_temperature;BMP_pressure;BME280_temperature;BME280_humidity;BME280_pressure;Samples;Min_cycle;Max_cycle;Signal;HPM_P1;HPM_P2
2023/07/09 00:00:26;;;;;;;7.13;2.20;;;;;;;19.15;73.96;101571.84;5015398;28;20467;-69
2023/07/09 00:02:53;;;;;;;6.07;2.23;;;;;;;19.12;74.49;101565.09;5015951;28;20531;-69
2023/07/09 00:05:20;;;;;;;9.13;2.13;;;;;;;19.07;75.54;101569.97;5015483;28;20443;-69
2023/07/09 00:07:46;;;;;;;6.10;2.00;;;;;;;19.07;75.43;101568.00;5015872;28;21062;-68
2023/07/09 00:10:18;;;;;;;5.77;1.93;;;;;;;18.97;76.36;101560.19;5016036;28;20519;-68
2023/07/09 00:12:46;;;;;;;6.93;2.30;;;;;;;18.94;75.87;101558.09;5015844;28;20515;-69
2023/07/09 00:15:15;;;;;;;7.27;2.83;;;;;;;18.93;75.78;101561.19;5016016;28;20455;-69
2023/07/09 00:17:42;;;;;;;10.20;2.83;;;;;;;18.89;76.24;101564.59;5016699;28;20471;-68
2023/07/09 00:20:14;;;;;;;6.07;1.83;;;;;;;18.82;76.44;101558.84;5016932;28;20436;-69
2023/07/09 00:22:41;;;;;;;7.93;2.40;;;;;;;18.80;76.95;101552.84;5017721;28;20503;-69
2023/07/09 00:25:16;;;;;;;7.60;2.80;;;;;;;18.82;76.66;101561.56;5018787;28;21010;-69
2023/07/09 00:27:46;;;;;;;7.00;2.53;;;;;;;18.81;77.21;101551.72;5018775;28;20857;-68
2023/07/09 00:30:17;;;;;;;8.67;2.40;;;;;;;18.85;76.82;101558.16;5018907;28;20534;-69
2023/07/09 00:32:44;;;;;;;7.07;2.70;;;;;;;18.86;76.42;101548.81;5018665;28;20421;-69
2023/07/09 00:35:15;;;;;;;7.23;3.10;;;;;;;18.86;76.14;101558.97;5018429;28;21029;-68
2023/07/09 00:37:42;;;;;;;6.10;2.20;;;;;;;18.85;75.94;101555.41;5018772;28;20559;-69
2023/07/09 00:40:15;;;;;;;7.10;2.17;;;;;;;18.83;76.32;101559.63;5019008;28;20475;-69
2023/07/09 00:42:45;;;;;;;10.13;2.73;;;;;;;18.80;77.56;101552.84;5018260;28;20440;-69
2023/07/09 00:45:19;;;;;;;7.00;2.70;;;;;;;18.81;77.46;101539.94;5018218;28;20451;-68
2023/07/09 00:47:52;;;;;;;7.53;3.03;;;;;;;18.82;77.71;101541.56;5018225;28;20567;-69
2023/07/09 00:50:41;;;;;;;6.83;2.70;;;;;;;18.79;78.10;101540.28;5018024;28;20901;-68
2023/07/09 00:53:17;;;;;;;10.10;2.70;;;;;;;18.77;77.13;101542.56;5018453;28;20469;-68
2023/07/09 00:55:47;;;;;;;9.63;2.30;;;;;;;18.76;76.62;101537.38;5018035;28;20453;-68
2023/07/09 00:58:16;;;;;;;6.77;2.57;;;;;;;18.70;77.06;101534.03;5018261;28;20483;-68
2023/07/09 01:00:47;;;;;;;7.40;2.60;;;;;;;18.67;77.34;101534.66;5017877;28;20440;-68
2023/07/09 01:03:21;;;;;;;5.80;2.50;;;;;;;18.64;76.87;101527.91;5018005;28;20486;-69
2023/07/09 01:05:51;;;;;;;6.40;2.70;;;;;;;18.65;76.42;101525.97;5018056;28;20916;-68
2023/07/09 01:08:18;;;;;;;10.27;2.80;;;;;;;18.62;77.05;101532.91;5017857;28;20582;-68
2023/07/09 01:10:45;;;;;;;5.93;2.20;;;;;;;18.57;77.07;101535.84;5017588;28;20491;-69
2023/07/09 01:13:12;;;;;;;6.53;2.43;;;;;;;18.53;76.72;101531.38;5017515;28;20875;-68
2023/07/09 01:15:38;;;;;;;9.37;3.10;;;;;;;18.50;77.01;101540.25;5018151;28;20875;-69
2023/07/09 01:18:08;;;;;;;6.97;2.47;;;;;;;18.47;77.68;101532.72;5017031;28;20478;-68
2023/07/09 01:20:35;;;;;;;7.30;2.30;;;;;;;18.42;78.20;101533.69;5017035;28;20474;-68
2023/07/09 01:23:03;;;;;;;6.27;2.40;;;;;;;18.42;78.39;101536.44;5016859;28;20539;-68
2023/07/09 01:25:30;;;;;;;7.13;2.67;;;;;;;18.36;78.62;101543.22;5016820;28;20490;-67
2023/07/09 01:27:57;;;;;;;6.00;2.17;;;;;;;18.30;79.07;101548.09;5016827;28;20864;-66
2023/07/09 01:30:26;;;;;;;9.00;2.60;;;;;;;18.29;78.94;101538.28;5016736;28;20488;-67
2023/07/09 01:32:57;;;;;;;13.57;3.17;;;;;;;18.28;79.35;101536.66;5016503;28;20448;-66
2023/07/09 01:35:26;;;;;;;10.67;3.17;;;;;;;18.26;78.93;101540.88;5016591;28;20467;-66
2023/07/09 01:37:53;;;;;;;7.77;2.63;;;;;;;18.21;79.32;101544.59;5016230;28;20555;-66
2023/07/09 01:40:23;;;;;;;9.33;3.47;;;;;;;18.16;79.62;101547.53;5016621;28;20444;-69
2023/07/09 01:42:51;;;;;;;8.47;2.80;;;;;;;18.08;80.08;101546.41;5016327;28;20432;-69
2023/07/09 01:45:20;;;;;;;8.10;2.87;;;;;;;18.01;80.38;101539.81;5016553;28;20455;-69
2023/07/09 01:47:46;;;;;;;8.33;3.17;;;;;;;18.01;80.69;101537.09;5017248;28;20562;-69
2023/07/09 01:50:16;;;;;;;11.40;2.50;;;;;;;17.99;81.20;101539.38;5017646;28;20479;-69
2023/07/09 01:52:44;;;;;;;7.13;3.07;;;;;;;18.00;80.67;101538.22;5017117;28;21021;-69
2023/07/09 01:55:12;;;;;;;8.60;3.17;;;;;;;17.96;80.57;101537.25;5018527;28;20531;-69
2023/07/09 01:57:40;;;;;;;7.53;2.50;;;;;;;17.94;81.01;101534.06;5017833;28;20479;-69
2023/07/09 02:00:10;;;;;;;6.53;2.13;;;;;;;17.86;81.35;101533.75;5017870;28;20460;-69
2023/07/09 02:02:38;;;;;;;6.93;2.23;;;;;;;17.77;82.33;101524.75;5017793;28;20455;-69
2023/07/09 02:05:06;;;;;;;6.17;2.40;;;;;;;17.75;82.44;101529.75;5018181;28;20436;-69
2023/07/09 02:07:33;;;;;;;7.53;2.77;;;;;;;17.75;82.57;101527.03;5018017;28;20467;-69
2023/07/09 02:09:59;;;;;;;6.83;2.90;;;;;;;17.77;82.37;101523.94;5017661;28;21027;-70
2023/07/09 02:12:26;;;;;;;6.10;2.40;;;;;;;17.72;82.79;101524.91;5018492;28;20486;-69
2023/07/09 02:14:54;;;;;;;7.10;2.43;;;;;;;17.69;83.01;101533.75;5017474;28;20448;-68
2023/07/09 02:17:21;;;;;;;6.53;2.43;;;;;;;17.64;83.62;101531.19;5015141;28;20492;-68
2023/07/09 02:19:48;;;;;;;9.60;3.67;;;;;;;17.67;82.90;101535.22;5015030;28;20452;-68
2023/07/09 02:22:14;;;;;;;6.97;2.60;;;;;;;17.63;82.98;101535.88;5014892;28;20496;-68
2023/07/09 02:24:41;;;;;;;13.37;3.00;;;;;;;17.61;83.18;101531.84;5015148;28;20446;-68
2023/07/09 02:27:10;;;;;;;7.60;2.83;;;;;;;17.55;82.45;101549.59;5014994;28;20444;-68
2023/07/09 02:29:37;;;;;;;6.40;2.57;;;;;;;17.50;83.59;101557.97;5014884;28;21023;-68
2023/07/09 02:32:05;;;;;;;6.90;2.90;;;;;;;17.47;83.30;101555.88;5014964;28;20546;-68
2023/07/09 02:34:32;;;;;;;6.60;2.60;;;;;;;17.43;83.27;101557.66;5014871;28;20436;-68
2023/07/09 02:37:00;;;;;;;7.30;3.10;;;;;;;17.44;83.27;101557.31;5015090;28;20540;-68
2023/07/09 02:39:27;;;;;;;6.93;2.83;;;;;;;17.42;83.76;101564.25;5014580;28;20440;-68
2023/07/09 02:41:54;;;;;;;6.20;2.53;;;;;;;17.37;83.73;101557.81;5014444;28;20931;-68
2023/07/09 02:44:21;;;;;;;7.23;2.90;;;;;;;17.31;84.29;101567.34;5014344;28;20631;-68
2023/07/09 02:46:48;;;;;;;10.80;2.60;;;;;;;17.26;83.88;101563.94;5014813;28;20438;-68
2023/07/09 02:49:16;;;;;;;7.63;3.00;;;;;;;17.21;84.22;101567.63;5014767;28;20460;-68
2023/07/09 02:51:42;;;;;;;8.53;3.20;;;;;;;17.17;84.70;101563.13;5014825;28;20575;-68
2023/07/09 02:54:09;;;;;;;7.60;2.70;;;;;;;17.17;85.09;101569.41;5014772;28;20471;-69
2023/07/09 02:56:36;;;;;;;9.47;3.90;;;;;;;17.15;84.57;101564.25;5014436;28;21034;-69
2023/07/09 02:59:02;;;;;;;7.20;3.10;;;;;;;17.13;85.28;101565.69;5014694;28;20547;-67
2023/07/09 03:01:29;;;;;;;7.73;3.77;;;;;;;17.09;85.72;101562.00;5014658;28;20444;-67
2023/07/09 03:03:57;;;;;;;9.13;3.73;;;;;;;17.06;87.45;101566.19;5014288;28;20479;-69
2023/07/09 03:06:25;;;;;;;7.33;3.30;;;;;;;17.07;90.37;101567.00;5016508;28;20448;-68
2023/07/09 03:08:52;;;;;;;7.80;3.63;;;;;;;17.04;90.55;101567.63;5014660;28;20813;-69
2023/07/09 03:11:20;;;;;;;8.47;3.70;;;;;;;17.00;91.73;101566.66;5014645;28;20485;-68
2023/07/09 03:13:47;;;;;;;7.27;3.27;;;;;;;16.95;91.26;101567.59;5014655;28;20844;-65
2023/07/09 03:16:15;;;;;;;8.07;3.27;;;;;;;16.89;91.77;101574.38;5014902;28;20539;-66
2023/07/09 03:18:41;;;;;;;8.57;3.37;;;;;;;16.83;93.65;101568.25;5014855;28;20464;-65
2023/07/09 03:21:08;;;;;;;6.80;2.80;;;;;;;16.80;94.54;101579.03;5014568;28;20476;-65
2023/07/09 03:23:36;;;;;;;7.10;3.23;;;;;;;16.75;95.96;101574.50;5014050;28;20969;-67
2023/07/09 03:26:03;;;;;;;9.27;3.50;;;;;;;16.70;96.53;101573.81;5014026;28;20970;-66
2023/07/09 03:28:31;;;;;;;9.03;3.17;;;;;;;16.69;97.50;101569.44;5013841;28;20574;-66
2023/07/09 03:30:58;;;;;;;7.83;3.27;;;;;;;16.61;96.50;101576.53;5013774;28;20519;-66
2023/07/09 03:33:25;;;;;;;8.90;3.60;;;;;;;16.57;97.49;101570.88;5014084;28;20460;-66
2023/07/09 03:35:52;;;;;;;11.57;3.47;;;;;;;16.50;98.15;101567.00;5013886;28;20444;-67
2023/07/09 03:38:19;;;;;;;10.03;3.20;;;;;;;16.49;97.04;101573.59;5013863;28;20470;-66
2023/07/09 03:40:51;;;;;;;7.07;2.80;;;;;;;16.48;97.70;101575.53;5013815;28;20443;-66
2023/07/09 03:43:18;;;;;;;9.27;3.70;;;;;;;16.48;98.42;101572.00;5013875;28;20455;-66
2023/07/09 03:45:46;;;;;;;8.93;3.77;;;;;;;16.48;97.73;101572.00;5013531;28;20440;-68
2023/07/09 03:48:14;;;;;;;7.60;2.97;;;;;;;16.53;98.41;101577.31;5013421;28;20464;-67
2023/07/09 03:50:40;;;;;;;12.83;3.60;;;;;;;16.52;98.29;101579.25;5049318;22;20581;-71
2023/07/09 03:53:07;;;;;;;9.13;3.10;;;;;;;16.56;98.99;101585.69;5033379;28;20889;-74
2023/07/09 03:55:34;;;;;;;8.40;3.57;;;;;;;16.62;99.00;101578.13;5033952;28;20439;-75
2023/07/09 03:58:03;;;;;;;6.33;2.90;;;;;;;16.63;98.27;101586.03;5032891;28;20542;-74
2023/07/09 04:00:30;;;;;;;8.37;3.27;;;;;;;16.67;100.00;101588.94;5033615;28;20463;-74
2023/07/09 04:02:57;;;;;;;7.33;3.30;;;;;;;16.71;99.23;101586.38;5033753;28;20871;-74
2023/07/09 04:05:24;;;;;;;8.00;2.93;;;;;;;16.74;99.04;101583.84;5034236;28;20443;-74
2023/07/09 04:07:51;;;;;;;11.70;3.57;;;;;;;16.76;99.13;101587.06;5033475;28;20439;-74
2023/07/09 04:10:18;;;;;;;7.83;3.00;;;;;;;16.81;99.42;101589.63;5033789;28;20463;-74
2023/07/09 04:12:45;;;;;;;10.77;3.60;;;;;;;16.86;99.37;101594.97;5034121;28;20586;-74
2023/07/09 04:15:13;;;;;;;13.20;3.80;;;;;;;16.87;98.97;101596.59;5033819;28;20447;-74
2023/07/09 04:17:40;;;;;;;6.23;2.90;;;;;;;16.93;99.27;101594.50;5033678;28;20483;-74
2023/07/09 04:20:09;;;;;;;8.97;3.77;;;;;;;16.98;100.00;101585.34;5033790;28;20908;-74
2023/07/09 04:22:36;;;;;;;8.80;3.47;;;;;;;17.00;99.66;101594.03;5033707;28;20447;-74
2023/07/09 04:25:05;;;;;;;8.73;3.23;;;;;;;17.07;100.00;101588.88;5033948;28;20882;-74
2023/07/09 04:27:33;;;;;;;7.70;3.37;;;;;;;17.13;100.00;101593.91;5034139;28;20501;-74
2023/07/09 04:30:00;;;;;;;7.17;2.93;;;;;;;17.18;100.00;101594.84;5033233;28;20471;-73
2023/07/09 04:32:28;;;;;;;8.10;3.33;;;;;;;17.21;98.89;101595.00;5032888;28;20529;-73
2023/07/09 04:34:55;;;;;;;6.77;2.93;;;;;;;17.29;99.41;101585.19;5033249;28;20485;-73
2023/07/09 04:37:21;;;;;;;12.97;3.70;;;;;;;17.36;100.00;101585.53;5033193;28;20961;-73
2023/07/09 04:39:49;;;;;;;10.30;4.07;;;;;;;17.41;99.81;101582.63;5033204;28;20447;-74
2023/07/09 04:42:17;;;;;;;9.30;3.33;;;;;;;17.46;99.77;101584.41;5033038;28;20439;-73
2023/07/09 04:44:45;;;;;;;7.63;3.13;;;;;;;17.53;99.67;101581.97;5033093;28;20475;-74
2023/07/09 04:47:12;;;;;;;6.73;2.80;;;;;;;17.58;99.62;101587.31;5033143;28;20875;-74
2023/07/09 04:49:41;;;;;;;10.17;2.97;;;;;;;17.63;98.44;101584.41;5032915;28;20451;-73
2023/07/09 04:52:10;;;;;;;9.73;3.70;;;;;;;17.68;98.47;101588.91;5033090;28;20566;-73
2023/07/09 04:54:39;;;;;;;8.63;3.40;;;;;;;17.74;98.41;101593.91;5033297;28;20447;-74
2023/07/09 04:57:07;;;;;;;8.50;3.50;;;;;;;17.80;97.97;101600.84;5033210;28;20895;-73
2023/07/09 04:59:33;;;;;;;6.07;2.50;;;;;;;17.87;98.03;101595.66;5032863;28;20471;-73
2023/07/09 05:02:00;;;;;;;8.27;2.87;;;;;;;17.92;97.75;101600.16;5032647;28;20442;-73
2023/07/09 05:04:27;;;;;;;9.50;3.60;;;;;;;17.98;98.36;101596.13;5032547;28;21075;-73
2023/07/09 05:06:54;;;;;;;6.13;2.60;;;;;;;18.05;97.41;101601.09;5032940;28;20469;-73
2023/07/09 05:09:21;;;;;;;7.70;2.90;;;;;;;18.12;97.09;101604.16;5035805;28;20450;-73
2023/07/09 05:11:48;;;;;;;6.53;2.80;;;;;;;18.21;97.02;101606.88;5035900;28;20533;-73
2023/07/09 05:14:14;;;;;;;8.27;3.70;;;;;;;18.29;96.43;101606.84;5036344;28;20490;-74
2023/07/09 05:16:41;;;;;;;7.27;3.03;;;;;;;18.36;95.62;101596.16;5036015;28;20958;-73
2023/07/09 05:19:08;;;;;;;7.20;2.90;;;;;;;18.45;95.45;101609.84;5035948;28;20792;-74
2023/07/09 05:21:35;;;;;;;7.90;3.50;;;;;;;18.55;95.06;101603.16;5036327;28;20455;-74
2023/07/09 05:24:05;;;;;;;8.10;3.07;;;;;;;18.61;94.91;101602.66;5036325;28;20976;-73
2023/07/09 05:26:32;;;;;;;8.00;3.30;;;;;;;18.69;94.28;101601.06;5035848;28;20984;-73
2023/07/09 05:28:58;;;;;;;9.20;3.87;;;;;;;18.78;93.61;101601.00;5036280;28;20435;-73
2023/07/09 05:31:25;;;;;;;8.20;3.10;;;;;;;18.84;93.06;101599.66;5035813;28;20494;-74
2023/07/09 05:33:52;;;;;;;7.30;2.70;;;;;;;18.94;93.16;101595.72;5035915;28;20447;-72
2023/07/09 05:36:19;;;;;;;13.10;3.50;;;;;;;19.03;92.06;101601.97;5035603;28;20530;-73
2023/07/09 05:38:46;;;;;;;8.90;3.27;;;;;;;19.11;91.01;101601.09;5035661;28;20451;-73
2023/07/09 05:41:16;;;;;;;10.33;3.40;;;;;;;19.21;90.79;101597.97;5035838;28;20471;-72
2023/07/09 05:43:44;;;;;;;6.47;2.50;;;;;;;19.31;91.33;101592.09;5036263;28;20450;-77
2023/07/09 05:46:11;;;;;;;7.63;2.97;;;;;;;19.42;90.92;101597.97;5035609;28;20950;-73
2023/07/09 05:48:38;;;;;;;6.87;2.50;;;;;;;19.51;90.95;101595.94;5035688;28;20477;-74
2023/07/09 05:51:04;;;;;;;6.93;3.13;;;;;;;19.59;90.28;101599.75;5035235;28;20534;-73
2023/07/09 05:53:31;;;;;;;8.77;3.17;;;;;;;19.67;88.19;101603.63;5035476;28;20442;-73
2023/07/09 05:55:59;;;;;;;9.83;3.27;;;;;;;19.79;88.34;101604.47;5035127;28;20513;-73
2023/07/09 05:58:27;;;;;;;8.83;2.77;;;;;;;19.90;87.19;101602.06;5035218;28;20534;-72
2023/07/09 06:00:56;;;;;;;9.30;3.27;;;;;;;20.00;85.76;101598.09;5035073;28;20490;-72
2023/07/09 06:03:23;;;;;;;7.27;2.77;;;;;;;20.13;83.43;101605.22;5035035;28;20449;-72
2023/07/09 06:05:50;;;;;;;5.90;2.70;;;;;;;20.28;82.98;101601.03;5035281;28;20451;-73
2023/07/09 06:08:17;;;;;;;7.13;2.83;;;;;;;20.40;82.55;101604.56;5034975;28;20535;-72
2023/07/09 06:10:52;;;;;;;9.23;2.70;;;;;;;20.54;81.52;101607.03;5034841;28;20471;-72
2023/07/09 06:13:19;;;;;;;9.40;2.63;;;;;;;20.62;80.04;101605.31;5035043;28;20478;-73
2023/07/09 06:15:47;;;;;;;6.03;2.27;;;;;;;20.74;79.75;101607.25;5034813;28;20966;-73
2023/07/09 06:18:14;;;;;;;6.53;2.63;;;;;;;20.83;79.14;101610.69;5034725;28;20834;-72
2023/07/09 06:20:41;;;;;;;6.53;2.80;;;;;;;20.89;77.93;101615.63;5034000;28;20455;-72
2023/07/09 06:23:08;;;;;;;5.97;1.93;;;;;;;20.98;77.60;101609.97;5034983;28;20463;-72
2023/07/09 06:25:34;;;;;;;7.53;2.33;;;;;;;21.08;76.52;101611.47;5034926;28;20447;-72
2023/07/09 06:28:01;;;;;;;6.53;2.80;;;;;;;21.20;76.36;101619.69;5034938;28;20450;-73
2023/07/09 06:30:27;;;;;;;5.40;2.17;;;;;;;21.30;75.29;101615.69;5034423;28;20469;-75
2023/07/09 06:32:55;;;;;;;6.80;2.23;;;;;;;21.46;74.22;101621.25;5034417;28;21077;-73
2023/07/09 06:35:22;;;;;;;6.40;2.33;;;;;;;21.58;72.33;101615.72;5034439;28;20486;-73
2023/07/09 06:37:48;;;;;;;7.07;2.40;;;;;;;21.69;73.50;101622.31;5034701;28;20447;-72
2023/07/09 06:40:15;;;;;;;6.80;2.70;;;;;;;21.80;72.00;101623.44;5034560;28;20495;-72
2023/07/09 06:42:41;;;;;;;7.93;2.40;;;;;;;21.88;70.52;101618.91;5034261;28;20439;-73
2023/07/09 06:45:08;;;;;;;6.67;2.40;;;;;;;22.00;71.11;101618.88;5034513;28;20447;-73
2023/07/09 06:47:35;;;;;;;5.90;2.60;;;;;;;22.09;71.62;101621.44;5034160;28;20482;-73
2023/07/09 06:50:04;;;;;;;10.10;2.50;;;;;;;22.20;70.87;101628.06;5033984;28;20487;-73
2023/07/09 06:52:30;;;;;;;7.43;2.20;;;;;;;22.26;70.98;101623.88;5034314;28;20507;-73
2023/07/09 06:54:57;;;;;;;6.00;2.00;;;;;;;22.34;70.24;101636.72;5034032;28;21041;-73
2023/07/09 06:57:23;;;;;;;6.03;2.10;;;;;;;22.41;69.49;101634.16;5034337;28;20445;-73
2023/07/09 06:59:50;;;;;;;6.33;2.20;;;;;;;22.51;69.17;101630.03;5034141;28;20449;-73
2023/07/09 07:02:17;;;;;;;8.60;2.77;;;;;;;22.64;64.51;101628.78;5033948;28;20443;-73
2023/07/09 07:04:44;;;;;;;7.97;2.87;;;;;;;22.84;63.60;101632.44;5034147;28;20443;-73
2023/07/09 07:07:12;;;;;;;7.13;2.17;;;;;;;23.03;61.68;101636.44;5033799;28;20986;-73
2023/07/09 07:09:38;;;;;;;6.40;2.13;;;;;;;23.14;62.79;101632.72;5033971;28;20475;-73
2023/07/09 07:12:06;;;;;;;7.30;2.30;;;;;;;23.24;63.84;101636.91;5033894;28;20537;-74
2023/07/09 07:14:33;;;;;;;6.13;1.97;;;;;;;23.35;61.33;101635.16;5033681;28;20455;-73
2023/07/09 07:16:59;;;;;;;5.57;2.00;;;;;;;23.49;61.70;101633.84;5033669;28;20937;-73
2023/07/09 07:19:27;;;;;;;7.20;2.23;;;;;;;23.62;61.78;101629.78;5033872;28;20490;-71
2023/07/09 07:21:54;;;;;;;6.00;2.17;;;;;;;23.73;61.82;101630.00;5033823;28;20562;-71
2023/07/09 07:24:21;;;;;;;6.07;2.23;;;;;;;23.81;61.55;101621.50;5033483;28;20819;-73
2023/07/09 07:26:48;;;;;;;5.40;1.90;;;;;;;23.90;60.98;101624.81;5033505;28;20482;-72
2023/07/09 07:29:15;;;;;;;8.90;2.47;;;;;;;24.00;61.11;101626.22;5033721;28;20482;-72
2023/07/09 07:31:41;;;;;;;8.40;3.10;;;;;;;24.15;55.08;101627.25;5033068;28;20517;-72
2023/07/09 07:34:08;;;;;;;6.80;2.37;;;;;;;24.34;55.63;101631.94;5033696;28;20482;-72
2023/07/09 07:36:34;;;;;;;7.47;2.30;;;;;;;24.41;58.55;101627.34;5033679;28;20450;-72
2023/07/09 07:39:01;;;;;;;5.57;2.10;;;;;;;24.50;58.47;101629.06;5033221;28;20486;-72
2023/07/09 07:41:29;;;;;;;6.80;2.40;;;;;;;24.57;59.57;101629.19;5033459;28;20494;-72
2023/07/09 07:43:56;;;;;;;6.87;2.43;;;;;;;24.65;58.99;101634.47;5033205;28;20832;-74
2023/07/09 07:46:22;;;;;;;5.90;2.20;;;;;;;24.74;58.46;101631.44;5033051;28;20486;-72
2023/07/09 07:48:49;;;;;;;6.37;2.20;;;;;;;24.83;58.28;101626.41;5033153;28;20474;-72
2023/07/09 07:51:16;;;;;;;5.60;2.30;;;;;;;24.90;58.63;101625.75;5033031;28;20479;-72
2023/07/09 07:53:42;;;;;;;6.03;2.10;;;;;;;25.02;58.91;101627.50;5033300;28;20490;-72
2023/07/09 07:56:10;;;;;;;6.77;2.13;;;;;;;25.11;58.17;101620.53;5033294;28;20892;-72
2023/07/09 07:58:38;;;;;;;5.87;2.03;;;;;;;25.22;57.19;101620.66;5033267;28;20446;-72
2023/07/09 08:01:04;;;;;;;6.73;2.23;;;;;;;25.35;57.49;101632.31;5033177;28;20467;-72
2023/07/09 08:03:31;;;;;;;5.43;1.90;;;;;;;25.41;56.31;101626.09;5033255;28;20443;-71
2023/07/09 08:05:57;;;;;;;6.03;2.00;;;;;;;25.46;55.21;101627.72;5033182;28;20876;-73
2023/07/09 08:08:24;;;;;;;8.40;2.00;;;;;;;25.52;56.28;101626.19;5032918;28;21009;-71
2023/07/09 08:10:51;;;;;;;7.50;2.63;;;;;;;25.51;53.77;101638.50;5033043;28;20459;-73
2023/07/09 08:13:18;;;;;;;7.00;2.23;;;;;;;25.58;54.41;101632.22;5033043;28;20487;-72
2023/07/09 08:15:46;;;;;;;6.00;1.90;;;;;;;25.65;55.55;101635.09;5033113;28;20453;-73
2023/07/09 08:18:13;;;;;;;5.57;1.90;;;;;;;25.71;53.85;101636.31;5033085;28;20851;-70
2023/07/09 08:20:44;;;;;;;5.57;2.03;;;;;;;25.78;53.15;101630.09;5033043;28;20555;-73
2023/07/09 08:23:11;;;;;;;5.53;1.70;;;;;;;25.87;54.20;101633.38;5032973;28;20481;-74
2023/07/09 08:25:37;;;;;;;5.90;2.03;;;;;;;25.97;53.77;101634.66;5033055;28;20477;-72
2023/07/09 08:28:04;;;;;;;7.60;2.60;;;;;;;26.05;51.44;101634.34;5032730;28;20475;-73
2023/07/09 08:30:30;;;;;;;8.50;1.93;;;;;;;26.14;52.36;101636.81;5032911;28;20462;-74
2023/07/09 08:32:58;;;;;;;8.47;2.37;;;;;;;26.24;54.24;101629.75;5032522;28;21006;-74
2023/07/09 08:35:25;;;;;;;5.20;1.57;;;;;;;26.28;54.53;101633.38;5032855;28;20442;-72
2023/07/09 08:37:52;;;;;;;6.20;2.63;;;;;;;26.34;52.77;101623.50;5032890;28;20439;-72
2023/07/09 08:40:19;;;;;;;7.87;2.60;;;;;;;26.41;52.48;101627.13;5032856;28;20592;-72
2023/07/09 08:42:50;;;;;;;6.77;2.17;;;;;;;26.47;52.83;101618.47;5033046;28;20985;-72
2023/07/09 08:45:29;;;;;;;6.60;2.90;;;;;;;26.55;51.91;101634.03;5036546;28;20437;-72
2023/07/09 08:48:05;;;;;;;6.20;2.10;;;;;;;26.63;50.49;101630.91;5036607;28;20423;-73
2023/07/09 08:50:38;;;;;;;6.97;2.03;;;;;;;26.75;49.87;101627.03;5036192;28;20479;-72
2023/07/09 08:53:06;;;;;;;7.00;2.33;;;;;;;26.81;50.65;101619.13;5036539;28;20471;-72
2023/07/09 08:55:40;;;;;;;7.40;2.73;;;;;;;26.92;49.04;101615.25;5036261;28;20435;-72
2023/07/09 08:58:13;;;;;;;7.67;3.00;;;;;;;27.06;50.92;101617.31;5036203;28;20818;-72
2023/07/09 09:00:46;;;;;;;5.80;2.10;;;;;;;27.13;51.35;101611.78;5036448;28;20545;-73
2023/07/09 09:03:21;;;;;;;8.10;2.80;;;;;;;27.22;51.01;101614.22;5036299;28;20797;-71
2023/07/09 09:05:50;;;;;;;7.20;2.43;;;;;;;27.28;48.87;101621.03;5036216;28;20437;-72
2023/07/09 09:08:32;;;;;;;6.70;2.90;;;;;;;27.30;48.03;101615.06;5036352;28;20439;-72
2023/07/09 09:11:08;;;;;;;6.97;2.37;;;;;;;27.42;49.06;101615.50;5036235;28;20546;-72
2023/07/09 09:13:38;;;;;;;5.43;1.90;;;;;;;27.56;49.25;101622.31;5036193;28;20466;-72
2023/07/09 09:16:12;;;;;;;7.10;2.50;;;;;;;27.65;49.15;101611.59;5036086;28;20930;-72
2023/07/09 09:18:43;;;;;;;6.97;2.63;;;;;;;27.73;49.15;101613.25;5035846;28;20499;-72
2023/07/09 09:21:16;;;;;;;7.53;2.13;;;;;;;27.79;48.99;101610.88;5036018;28;20554;-71
2023/07/09 09:23:49;;;;;;;7.60;2.73;;;;;;;27.86;48.17;101620.03;5035975;28;20423;-72
2023/07/09 09:26:22;;;;;;;5.93;2.23;;;;;;;27.91;46.63;101614.09;5035600;28;20431;-72
2023/07/09 09:28:48;;;;;;;6.23;2.70;;;;;;;27.91;43.82;101611.31;5035551;28;20489;-72
2023/07/09 09:31:18;;;;;;;7.10;2.70;;;;;;;28.05;46.90;101615.31;5035405;28;21057;-73
2023/07/09 09:33:48;;;;;;;7.77;3.00;;;;;;;28.15;46.00;101617.28;5035720;28;20482;-72
2023/07/09 09:36:17;;;;;;;6.53;2.70;;;;;;;28.27;47.06;101624.47;5035853;28;20427;-72
2023/07/09 09:38:45;;;;;;;6.30;1.93;;;;;;;28.33;44.80;101626.47;5035772;28;20813;-73
2023/07/09 09:41:15;;;;;;;5.83;2.40;;;;;;;28.40;45.32;101625.69;5035688;28;20470;-73
2023/07/09 09:43:43;;;;;;;6.20;2.30;;;;;;;28.38;42.78;101620.53;5035377;28;20435;-72
2023/07/09 09:46:15;;;;;;;6.30;2.67;;;;;;;28.39;42.93;101624.13;5035604;28;20446;-72
2023/07/09 09:48:48;;;;;;;6.73;2.27;;;;;;;28.54;44.47;101628.47;5035271;28;20514;-73
2023/07/09 09:51:15;;;;;;;6.90;2.30;;;;;;;28.56;43.36;101628.88;5035080;28;20515;-73
2023/07/09 09:53:48;;;;;;;5.97;1.97;;;;;;;28.62;41.87;101618.91;5035272;28;20483;-72
2023/07/09 09:56:19;;;;;;;7.23;2.30;;;;;;;28.70;42.39;101621.72;5035411;28;20866;-73
2023/07/09 09:58:45;;;;;;;6.50;2.00;;;;;;;28.81;43.33;101614.91;5035368;28;20423;-72
2023/07/09 10:01:16;;;;;;;7.30;2.50;;;;;;;28.83;42.31;101617.31;5035262;28;20467;-72
2023/07/09 10:03:44;;;;;;;5.00;1.83;;;;;;;28.89;42.56;101621.25;5035077;28;20930;-71
2023/07/09 10:06:17;;;;;;;5.90;2.00;;;;;;;28.98;42.96;101610.50;5035252;28;20449;-72
2023/07/09 10:08:54;;;;;;;5.83;2.43;;;;;;;29.07;41.92;101616.47;5034929;28;20922;-71
2023/07/09 10:11:29;;;;;;;10.57;2.60;;;;;;;29.14;42.23;101622.03;5035131;28;20463;-72
2023/07/09 10:14:03;;;;;;;6.07;2.23;;;;;;;29.15;42.39;101618.03;5035115;28;20474;-72
2023/07/09 10:16:36;;;;;;;7.30;2.47;;;;;;;29.23;42.75;101613.22;5035205;28;20443;-72
2023/07/09 10:19:13;;;;;;;8.00;2.47;;;;;;;29.36;41.07;101617.16;5034769;28;20903;-72
2023/07/09 10:21:46;;;;;;;5.97;2.50;;;;;;;29.44;41.26;101612.34;5035041;28;20495;-72
2023/07/09 10:24:27;;;;;;;5.00;2.03;;;;;;;29.55;41.08;101620.66;5034617;28;20869;-71
2023/07/09 10:27:04;;;;;;;5.20;2.10;;;;;;;29.68;42.18;101619.03;5034685;28;20438;-72
2023/07/09 10:29:46;;;;;;;9.17;2.87;;;;;;;29.69;40.11;101619.81;5034626;28;20877;-72
2023/07/09 10:32:25;;;;;;;5.57;2.20;;;;;;;29.77;39.26;101619.38;5034781;28;20804;-72
2023/07/09 10:34:58;;;;;;;5.40;2.00;;;;;;;29.91;41.87;101622.06;5035050;28;20562;-72
2023/07/09 10:37:53;;;;;;;5.60;1.90;;;;;;;29.99;38.87;101613.66;5034563;28;20433;-72
2023/07/09 10:40:30;;;;;;;6.50;2.30;;;;;;;30.07;39.58;101620.78;5034513;28;20485;-72
2023/07/09 10:43:00;;;;;;;6.07;2.40;;;;;;;30.17;40.09;101621.94;5034575;28;20522;-71
2023/07/09 10:45:31;;;;;;;11.80;2.20;;;;;;;30.26;39.55;101609.06;5034327;28;20432;-71
2023/07/09 10:48:02;;;;;;;6.17;2.30;;;;;;;30.37;38.01;101618.19;5034487;28;20419;-71
2023/07/09 10:50:32;;;;;;;5.93;2.10;;;;;;;30.52;38.30;101607.66;5034153;28;20474;-72
2023/07/09 10:53:07;;;;;;;5.10;2.10;;;;;;;30.61;39.63;101604.38;5034296;28;20420;-73
2023/07/09 10:55:42;;;;;;;5.67;2.10;;;;;;;30.67;41.45;101611.09;5034322;28;20450;-71
2023/07/09 10:58:23;;;;;;;7.27;2.50;;;;;;;30.76;38.63;101611.44;5034315;28;20593;-71
2023/07/09 11:00:50;;;;;;;6.07;2.13;;;;;;;30.93;38.07;101606.84;5034245;28;20502;-72
2023/07/09 11:03:19;;;;;;;4.80;1.80;;;;;;;31.09;39.31;101612.66;5033942;28;20443;-72
2023/07/09 11:05:47;;;;;;;6.07;2.37;;;;;;;31.19;37.02;101613.75;5033805;28;20449;-72
2023/07/09 11:08:19;;;;;;;5.50;2.30;;;;;;;31.36;37.06;101609.97;5034115;28;20435;-71
2023/07/09 11:10:51;;;;;;;5.80;2.30;;;;;;;31.53;38.26;101608.16;5034113;28;20463;-71
2023/07/09 11:13:26;;;;;;;8.20;3.03;;;;;;;31.72;39.00;101598.28;5034003;28;20467;-72
2023/07/09 11:15:56;;;;;;;5.70;2.33;;;;;;;31.92;37.58;101606.00;5034003;28;20448;-72
2023/07/09 11:18:25;;;;;;;6.53;2.17;;;;;;;32.06;38.17;101600.19;5033867;28;20531;-71
2023/07/09 11:21:00;;;;;;;5.40;1.67;;;;;;;32.24;36.74;101589.47;5033509;28;20459;-72
2023/07/09 11:23:44;;;;;;;5.90;1.90;;;;;;;32.61;38.22;101596.84;5033986;28;20518;-72
2023/07/09 11:26:13;;;;;;;7.13;3.00;;;;;;;33.04;35.07;101598.06;5033864;28;20427;-72
2023/07/09 11:28:42;;;;;;;6.63;2.60;;;;;;;33.54;38.31;101588.59;5033804;28;20446;-72
2023/07/09 11:31:17;;;;;;;5.57;1.83;;;;;;;34.13;36.54;101590.44;5033675;28;20489;-72